createdAt,value
2019-01-23T00:01:44.172Z,-1.30
2019-01-23T00:05:52.284Z,-1.30
2019-01-23T00:10:00.400Z,-1.30
2019-01-23T00:14:08.560Z,-1.30
2019-01-23T00:18:16.685Z,-1.30
2019-01-23T00:22:24.812Z,-1.40
2019-01-23T00:26:32.941Z,-1.30
2019-01-23T00:30:41.069Z,-1.40
2019-01-23T00:34:49.181Z,-1.40
2019-01-23T00:38:57.288Z,-1.40
2019-01-23T00:43:05.434Z,-1.40
2019-01-23T00:47:13.587Z,-1.30
2019-01-23T00:51:21.708Z,-1.30
2019-01-23T00:55:29.836Z,-1.40
2019-01-23T00:59:37.953Z,-1.40
2019-01-23T01:03:46.080Z,-1.40
2019-01-23T01:07:54.207Z,-1.40
2019-01-23T01:12:02.356Z,-1.50
2019-01-23T01:16:10.480Z,-1.50
2019-01-23T01:20:18.612Z,-1.50
2019-01-23T01:24:26.729Z,-1.50
2019-01-23T01:28:34.864Z,-1.50
2019-01-23T01:32:42.997Z,-1.50
2019-01-23T01:36:51.124Z,-1.50
2019-01-23T01:40:59.266Z,-1.50
2019-01-23T01:45:07.833Z,-1.50
2019-01-23T01:49:15.961Z,-1.50
2019-01-23T01:53:24.071Z,-1.50
2019-01-23T01:57:32.199Z,-1.50
2019-01-23T02:01:40.329Z,-1.50
2019-01-23T02:05:48.458Z,-1.50
2019-01-23T02:09:56.576Z,-1.50
2019-01-23T02:14:04.794Z,-1.40
2019-01-23T02:18:12.929Z,-1.40
2019-01-23T02:22:21.059Z,-1.40
2019-01-23T02:26:29.168Z,-1.40
2019-01-23T02:30:37.293Z,-1.40
2019-01-23T02:34:45.434Z,-1.30
2019-01-23T02:38:53.544Z,-1.30
2019-01-23T02:43:01.675Z,-1.40
2019-01-23T02:47:09.813Z,-1.30
2019-01-23T02:51:17.925Z,-1.30
2019-01-23T02:55:26.068Z,-1.30
2019-01-23T02:59:34.232Z,-1.30
2019-01-23T03:03:42.416Z,-1.30
2019-01-23T03:07:50.591Z,-1.40
2019-01-23T03:11:58.728Z,-1.40
2019-01-23T03:16:06.881Z,-1.40
2019-01-23T03:20:16.441Z,-1.30
2019-01-23T03:24:24.611Z,-1.40
2019-01-23T03:28:32.765Z,-1.40
2019-01-23T03:32:40.939Z,-1.40
2019-01-23T03:36:49.110Z,-1.50
2019-01-23T03:40:57.289Z,-1.50
2019-01-23T03:45:06.476Z,-1.50
2019-01-23T03:49:14.669Z,-1.60
2019-01-23T03:53:22.816Z,-1.60
2019-01-23T03:57:30.977Z,-1.60
2019-01-23T04:01:39.149Z,-1.60
2019-01-23T04:05:47.301Z,-1.60
2019-01-23T04:09:55.467Z,-1.60
2019-01-23T04:14:03.645Z,-1.60
2019-01-23T04:18:11.813Z,-1.60
2019-01-23T04:22:19.972Z,-1.60
2019-01-23T04:26:28.121Z,-1.60
2019-01-23T04:30:36.281Z,-1.60
2019-01-23T04:34:44.450Z,-1.50
2019-01-23T04:38:52.593Z,-1.50
2019-01-23T04:43:00.755Z,-1.50
2019-01-23T04:47:08.916Z,-1.60
2019-01-23T04:51:39.485Z,-1.60
2019-01-23T04:55:47.656Z,-1.60
2019-01-23T04:59:55.801Z,-1.60
2019-01-23T05:04:04.312Z,-1.60
2019-01-23T05:08:12.467Z,-1.60
2019-01-23T05:12:20.619Z,-1.60
2019-01-23T05:16:28.782Z,-1.60
2019-01-23T05:20:36.945Z,-1.60
2019-01-23T05:24:45.100Z,-1.60
2019-01-23T05:28:53.265Z,-1.60
2019-01-23T05:33:01.428Z,-1.60
2019-01-23T05:37:09.606Z,-1.60
2019-01-23T05:41:17.768Z,-1.60
2019-01-23T05:45:25.919Z,-1.60
2019-01-23T05:49:34.086Z,-1.60
2019-01-23T05:53:42.241Z,-1.60
2019-01-23T05:57:50.446Z,-1.60
2019-01-23T06:01:58.597Z,-1.60
2019-01-23T06:06:06.776Z,-1.60
2019-01-23T06:10:14.942Z,-1.50
2019-01-23T06:14:23.133Z,-1.50
2019-01-23T06:18:31.297Z,-1.40
2019-01-23T06:22:39.465Z,-1.40
2019-01-23T06:26:47.628Z,-1.40
2019-01-23T06:30:55.796Z,-1.40
2019-01-23T06:35:04.054Z,-1.50
2019-01-23T06:39:12.217Z,-1.50
2019-01-23T06:43:21.653Z,-1.40
2019-01-23T06:47:28.541Z,-1.40
2019-01-23T06:51:36.706Z,-1.40
2019-01-23T06:55:44.897Z,-1.40
2019-01-23T06:59:53.112Z,-1.40
2019-01-23T07:04:01.297Z,-1.40
2019-01-23T07:08:09.461Z,-1.40
2019-01-23T07:12:17.633Z,-1.30
2019-01-23T07:16:25.819Z,-1.30
2019-01-23T07:20:34.006Z,-1.30
2019-01-23T07:24:42.166Z,-1.30
2019-01-23T07:28:50.354Z,-1.30
2019-01-23T07:32:58.516Z,-1.30
2019-01-23T07:37:06.798Z,-1.30
2019-01-23T07:41:14.965Z,-1.30
2019-01-23T07:45:23.254Z,-1.30
2019-01-23T07:49:31.469Z,-1.30
2019-01-23T07:53:39.630Z,-1.30
2019-01-23T07:57:47.802Z,-1.30
2019-01-23T08:01:55.968Z,-1.30
2019-01-23T08:06:04.130Z,-1.20
2019-01-23T08:10:13.785Z,-1.10
2019-01-23T08:14:21.941Z,-1.00
2019-01-23T08:18:30.093Z,-1.00
2019-01-23T08:22:38.263Z,-0.90
2019-01-23T08:26:46.528Z,-0.90
2019-01-23T08:30:54.648Z,-0.80
2019-01-23T08:35:02.788Z,-0.90
2019-01-23T08:39:11.008Z,-0.90
2019-01-23T08:43:19.141Z,-0.90
2019-01-23T08:47:27.281Z,-1.00
2019-01-23T08:51:35.408Z,-1.00
2019-01-23T08:55:43.940Z,-0.90
2019-01-23T08:59:52.332Z,-0.80
2019-01-23T09:04:00.542Z,-0.70
2019-01-23T09:08:08.777Z,-0.60
2019-01-23T09:12:16.902Z,-0.50
2019-01-23T09:16:25.101Z,-0.30
2019-01-23T09:20:33.230Z,-0.20
2019-01-23T09:24:41.405Z,-0.10
2019-01-23T09:28:49.640Z,-0.10
2019-01-23T09:33:10.618Z,-0.10
2019-01-23T09:37:29.284Z,-0.10
2019-01-23T09:42:18.250Z,-0.10
2019-01-23T09:46:40.988Z,0.10
2019-01-23T09:50:59.254Z,0.10
2019-01-23T09:55:09.241Z,0.10
2019-01-23T09:59:17.361Z,0.30
2019-01-23T10:03:25.497Z,0.50
2019-01-23T10:07:33.648Z,0.40
2019-01-23T10:11:41.768Z,0.30
2019-01-23T10:15:56.553Z,0.30
2019-01-23T10:20:04.805Z,0.50
2019-01-23T10:24:12.920Z,0.50
2019-01-23T10:28:21.043Z,0.50
2019-01-23T10:32:29.485Z,0.50
2019-01-23T10:36:37.647Z,0.50
2019-01-23T10:40:45.835Z,0.40
2019-01-23T10:44:53.963Z,0.40
2019-01-23T10:49:02.093Z,0.50
2019-01-23T10:53:10.247Z,0.50
2019-01-23T10:57:18.350Z,0.40
2019-01-23T11:01:26.473Z,0.40
2019-01-23T11:05:34.614Z,0.30
2019-01-23T11:09:42.830Z,0.30
2019-01-23T11:13:50.941Z,0.40
2019-01-23T11:17:59.057Z,0.60
2019-01-23T11:22:07.169Z,0.70
2019-01-23T11:26:15.286Z,0.50
2019-01-23T11:30:25.092Z,0.50
2019-01-23T11:34:33.253Z,0.50
2019-01-23T11:38:41.378Z,0.60
2019-01-23T11:42:49.482Z,0.90
2019-01-23T11:46:57.596Z,1.00
2019-01-23T11:51:05.692Z,1.20
2019-01-23T11:55:13.825Z,1.20
2019-01-23T11:59:21.948Z,0.90
2019-01-23T12:03:30.172Z,0.80
2019-01-23T12:07:38.284Z,0.90
2019-01-23T12:11:46.401Z,1.00
2019-01-23T12:15:54.517Z,0.90
2019-01-23T12:20:02.620Z,0.90
2019-01-23T12:24:10.724Z,0.90
2019-01-23T12:28:18.832Z,1.00
2019-01-23T12:32:26.940Z,0.90
2019-01-23T12:36:35.055Z,0.90
2019-01-23T12:40:43.141Z,0.80
2019-01-23T12:44:51.254Z,0.90
2019-01-23T12:48:59.362Z,1.00
2019-01-23T12:53:07.471Z,0.90
2019-01-23T12:57:15.578Z,0.80
2019-01-23T13:01:23.689Z,0.90
2019-01-23T13:05:31.797Z,0.90
2019-01-23T13:09:39.895Z,1.00
2019-01-23T13:13:48.013Z,1.10
2019-01-23T13:17:56.147Z,1.20
2019-01-23T13:22:04.273Z,1.20
2019-01-23T13:26:12.392Z,1.20
2019-01-23T13:30:22.540Z,1.20
2019-01-23T13:34:30.634Z,1.00
2019-01-23T13:38:38.765Z,0.80
2019-01-23T13:42:46.875Z,0.60
2019-01-23T13:46:54.984Z,0.50
2019-01-23T13:51:03.089Z,0.50
2019-01-23T13:55:12.222Z,0.50
2019-01-23T13:59:20.440Z,0.50
2019-01-23T14:03:28.533Z,0.50
2019-01-23T14:07:36.657Z,0.50
2019-01-23T14:11:44.760Z,0.60
2019-01-23T14:15:52.873Z,0.60
2019-01-23T14:20:00.969Z,0.50
2019-01-23T14:24:09.080Z,0.50
2019-01-23T14:28:17.180Z,0.40
2019-01-23T14:32:25.404Z,0.20
2019-01-23T14:36:33.497Z,0.10
2019-01-23T14:40:41.621Z,0.10
2019-01-23T14:44:49.742Z,0.10
2019-01-23T14:48:57.841Z,0.00
2019-01-23T14:53:05.965Z,0.10
2019-01-23T14:57:14.069Z,0.10
2019-01-23T15:01:22.181Z,0.10
2019-01-23T15:05:30.312Z,0.10
2019-01-23T15:09:38.416Z,0.10
2019-01-23T15:13:46.535Z,0.10
2019-01-23T15:17:54.802Z,0.10
2019-01-23T15:22:02.921Z,0.10
2019-01-23T15:26:11.034Z,0.00
2019-01-23T15:30:20.569Z,0.00
2019-01-23T15:34:28.063Z,-0.10
2019-01-23T15:38:36.184Z,-0.10
2019-01-23T15:42:44.300Z,-0.10
2019-01-23T15:46:52.407Z,-0.20
2019-01-23T15:51:00.528Z,-0.20
2019-01-23T15:55:10.737Z,-0.30
2019-01-23T15:59:18.855Z,-0.40
2019-01-23T16:03:26.978Z,-0.40
2019-01-23T16:07:35.095Z,-0.50
2019-01-23T16:11:43.218Z,-0.50
2019-01-23T16:15:51.325Z,-0.60
2019-01-23T16:19:59.451Z,-0.60
2019-01-23T16:24:07.581Z,-0.70
2019-01-23T16:28:15.693Z,-0.70
2019-01-23T16:32:23.823Z,-0.70
2019-01-23T16:36:31.940Z,-0.80
2019-01-23T16:40:40.048Z,-0.80
2019-01-23T16:44:48.153Z,-0.90
2019-01-23T16:48:56.268Z,-1.00
2019-01-23T16:53:04.546Z,-1.10
2019-01-23T16:57:12.666Z,-1.20
2019-01-23T17:01:20.768Z,-1.20
2019-01-23T17:05:29.956Z,-1.20
2019-01-23T17:09:38.066Z,-1.20
2019-01-23T17:13:46.184Z,-1.20
2019-01-23T17:17:54.324Z,-1.20
2019-01-23T17:22:02.445Z,-1.20
2019-01-23T17:26:10.554Z,-1.20
2019-01-23T17:30:18.681Z,-1.20
2019-01-23T17:34:26.797Z,-1.10
2019-01-23T17:38:34.928Z,-1.20
2019-01-23T17:42:43.049Z,-1.30
2019-01-23T17:46:51.153Z,-1.40
2019-01-23T17:50:59.272Z,-1.50
2019-01-23T17:55:10.912Z,-1.60
2019-01-23T17:59:19.033Z,-1.60
2019-01-23T18:03:27.154Z,-1.50
2019-01-23T18:07:35.277Z,-1.60
2019-01-23T18:11:43.390Z,-1.60
2019-01-23T18:15:51.619Z,-1.60
2019-01-23T18:19:59.740Z,-1.70
2019-01-23T18:24:07.848Z,-1.60
2019-01-23T18:28:15.965Z,-1.60
2019-01-23T18:32:24.089Z,-1.70
2019-01-23T18:37:47.126Z,-1.70
2019-01-23T18:42:06.609Z,-1.60
2019-01-23T18:47:36.037Z,-1.70
2019-01-23T18:51:49.461Z,-1.60
2019-01-23T18:55:57.572Z,-1.70
2019-01-23T19:00:08.157Z,-1.70
2019-01-23T19:04:16.271Z,-1.60
2019-01-23T19:08:24.373Z,-1.60
2019-01-23T19:12:32.491Z,-1.50
2019-01-23T19:16:40.605Z,-1.60
2019-01-23T19:20:48.712Z,-1.70
2019-01-23T19:24:56.830Z,-1.70
2019-01-23T19:29:04.948Z,-1.60
2019-01-23T19:33:13.752Z,-1.60
2019-01-23T19:37:21.225Z,-1.60
2019-01-23T19:41:29.341Z,-1.60
2019-01-23T19:45:37.557Z,-1.60
2019-01-23T19:49:45.704Z,-1.50
2019-01-23T19:53:53.778Z,-1.60
2019-01-23T19:58:04.415Z,-1.50
2019-01-23T20:02:10.013Z,-1.50
2019-01-23T20:06:18.146Z,-1.60
2019-01-23T20:10:26.638Z,-1.50
2019-01-23T20:14:34.765Z,-1.50
2019-01-23T20:18:42.884Z,-1.50
2019-01-23T20:22:50.996Z,-1.50
2019-01-23T20:26:59.104Z,-1.50
2019-01-23T20:31:07.225Z,-1.50
2019-01-23T20:35:15.344Z,-1.50
2019-01-23T20:39:23.477Z,-1.60
2019-01-23T20:43:31.586Z,-1.60
2019-01-23T20:47:39.789Z,-1.60
2019-01-23T20:51:47.905Z,-1.50
2019-01-23T20:55:56.024Z,-1.50
2019-01-23T21:00:07.088Z,-1.50
2019-01-23T21:04:15.473Z,-1.40
2019-01-23T21:08:23.633Z,-1.50
2019-01-23T21:12:31.738Z,-1.50
2019-01-23T21:16:39.857Z,-1.50
2019-01-23T21:20:47.972Z,-1.50
2019-01-23T21:24:56.085Z,-1.60
2019-01-23T21:29:04.206Z,-1.60
2019-01-23T21:33:12.325Z,-1.60
2019-01-23T21:37:20.475Z,-1.60
2019-01-23T21:41:28.600Z,-1.60
2019-01-23T21:45:38.094Z,-1.70
2019-01-23T21:49:46.205Z,-1.70
2019-01-23T21:53:54.309Z,-1.70
2019-01-23T21:58:02.436Z,-1.70
2019-01-23T22:02:10.559Z,-1.70
2019-01-23T22:06:18.678Z,-1.70
2019-01-23T22:10:26.777Z,-1.70
2019-01-23T22:14:34.880Z,-1.80
2019-01-23T22:18:42.994Z,-1.80
2019-01-23T22:22:51.114Z,-1.80
2019-01-23T22:26:59.237Z,-1.80
2019-01-23T22:31:07.349Z,-1.80
2019-01-23T22:35:15.785Z,-1.80
2019-01-23T22:39:23.894Z,-1.90
2019-01-23T22:43:32.021Z,-1.90
2019-01-23T22:47:40.124Z,-1.90
2019-01-23T22:51:48.237Z,-2.00
2019-01-23T22:55:56.365Z,-2.00
2019-01-23T23:00:10.402Z,-1.90
2019-01-23T23:04:18.506Z,-1.90
2019-01-23T23:08:26.625Z,-1.90
2019-01-23T23:12:34.732Z,-1.90
2019-01-23T23:16:42.844Z,-1.90
2019-01-23T23:20:50.987Z,-1.90
2019-01-23T23:24:59.100Z,-1.90
2019-01-23T23:29:07.343Z,-1.90
2019-01-23T23:33:15.462Z,-2.00
2019-01-23T23:37:23.577Z,-2.00
2019-01-23T23:41:31.721Z,-2.00
2019-01-23T23:45:39.820Z,-2.00
2019-01-23T23:49:47.951Z,-1.90
2019-01-23T23:53:56.016Z,-1.90
2019-01-23T23:58:04.132Z,-2.00
